Gogerbank, United Kingdom
Current Conditions -  °F | °C
As of 8:20 PM on Tuesday 25 Nov 2014 (Local Time) from EGPH Reporting Station
Broken Clouds Broken Clouds  
Wind Chill: 45°   Ceiling: 3400
Heat Index: 45°   Visibility: 4mi
Dew Point: 45°   Wind: 3mph
Humidity: 100%   Direction: 60°ENE
Pressure: 30.15"   Gusts: NA
Location:  55.92°N, 3.32°W
Report Text: EGPH 252020Z 06003KT 6000 BKN034 07/07 Q1021
Loading
Personal Weather Stations






























Interactive Weather Map New forecast layout! Learn more

10-Day Weather Forecast

Advertisements
Track Severe Weather on mobile